Big Bear Station Historical Data
Daily Summary for June 28, 2019 Units:  English    Metric   Both
Next Day »
Daily Weekly Monthly Yearly Custom
  High: Low: Average:
Temperature: 80.6 °F 46.2 °F 65.5 °F
Dew Point: 40.5 °F 18.5 °F 25.8 °F
Humidity: 67% 11% 26%
Wind Speed: 5.3mph 0mph 0.3mph
Wind Gust: -999mph - -
Wind- - SSW
Pressure: 23.61 in 23.55 in -
Precipitation: 0 in    
Historical Graphs
 
 
Tabular Data for June 28, 2019
Time Temperature Dew Point Pressure Wind Wind Speed Wind Gust Humidity Rainfall Rate (Hourly)
00:14 53.2 °F 27.6 °F 23.57 in Calm   -999 mph 37% 0.00 in
00:30 53.1 °F 26.8 °F 23.57 in Calm   -999 mph 36% 0.00 in
00:45 52.7 °F 27.8 °F 23.57 in Calm   -999 mph 38% 0.00 in
01:00 51.1 °F 23 °F 23.56 in Calm   -999 mph 33% 0.00 in
01:15 50.7 °F 21.9 °F 23.56 in Calm   -999 mph 32% 0.00 in
01:31 50.7 °F 23.3 °F 23.56 in Calm   -999 mph 34% 0.00 in
01:46 50.4 °F 24.4 °F 23.56 in Calm   -999 mph 36% 0.00 in
02:01 50 °F 24.1 °F 23.55 in Calm   -999 mph 36% 0.00 in
02:16 49.5 °F 24.9 °F 23.55 in Calm   -999 mph 38% 0.00 in
07:04 46.2 °F 33.5 °F 23.56 in Calm   -999 mph 61% 0.00 in
07:19 46.8 °F 36.4 °F 23.56 in Calm   -999 mph 67% 0.00 in
07:34 47.8 °F 35.4 °F 23.57 in Calm   -999 mph 62% 0.00 in
07:50 50.9 °F 31.4 °F 23.57 in Calm   -999 mph 47% 0.00 in
08:05 55.8 °F 23.2 °F 23.57 in Calm   -999 mph 28% 0.00 in
08:20 58.1 °F 21.5 °F 23.58 in Calm   -999 mph 24% 0.00 in
08:35 59.9 °F 22 °F 23.58 in Calm   -999 mph 23% 0.00 in
08:50 60.8 °F 20.6 °F 23.58 in Calm   -999 mph 21% 0.00 in
09:06 62.4 °F 20.8 °F 23.59 in Calm   -999 mph 20% 0.00 in
09:21 63.7 °F 20.6 °F 23.59 in WNW 2.7 mph -999 mph 19% 0.00 in
09:36 64.6 °F 22.6 °F 23.59 in Calm   -999 mph 20% 0.00 in
09:51 66 °F 18.5 °F 23.59 in Calm   -999 mph 16% 0.00 in
10:06 67.1 °F 19.4 °F 23.59 in Calm   -999 mph 16% 0.00 in
10:22 68 °F 20.1 °F 23.59 in Calm   -999 mph 16% 0.00 in
10:37 69.8 °F 21.6 °F 23.60 in Calm   -999 mph 16% 0.00 in
10:52 70.5 °F 20.6 °F 23.60 in Calm   -999 mph 15% 0.00 in
11:07 71.2 °F 21.2 °F 23.60 in West 5.3 mph -999 mph 15% 0.00 in
11:22 72.7 °F 20.7 °F 23.60 in Calm   -999 mph 14% 0.00 in
11:38 74.1 °F 21.8 °F 23.60 in Calm   -999 mph 14% 0.00 in
11:53 75.6 °F 24.7 °F 23.60 in Calm   -999 mph 15% 0.00 in
12:08 76.6 °F 22.1 °F 23.61 in Calm   -999 mph 13% 0.00 in
12:23 77.9 °F 23.1 °F 23.61 in WNW 2.7 mph -999 mph 13% 0.00 in
12:39 78.1 °F 21.3 °F 23.61 in SE 2.2 mph -999 mph 12% 0.00 in
12:54 77.5 °F 18.8 °F 23.61 in Calm   -999 mph 11% 0.00 in
13:09 76.1 °F 19.8 °F 23.61 in South 2.2 mph -999 mph 12% 0.00 in
13:24 78.4 °F 23.5 °F 23.61 in ENE 2.7 mph -999 mph 13% 0.00 in
13:39 78.8 °F 21.9 °F 23.61 in Calm   -999 mph 12% 0.00 in
13:55 78.6 °F 21.7 °F 23.61 in Calm   -999 mph 12% 0.00 in
14:10 78.3 °F 25.2 °F 23.61 in Calm   -999 mph 14% 0.00 in
14:25 78.4 °F 21.6 °F 23.61 in Calm   -999 mph 12% 0.00 in
14:40 78.4 °F 23.5 °F 23.60 in Calm   -999 mph 13% 0.00 in
14:55 77 °F 24.1 °F 23.60 in Calm   -999 mph 14% 0.00 in
15:11 77.9 °F 26.5 °F 23.60 in Calm   -999 mph 15% 0.00 in
15:26 77.2 °F 22.5 °F 23.60 in South 1.1 mph -999 mph 13% 0.00 in
15:41 76.8 °F 22.2 °F 23.60 in Calm   -999 mph 13% 0.00 in
15:56 76.6 °F 27 °F 23.60 in Calm   -999 mph 16% 0.00 in
16:11 75.6 °F 26.2 °F 23.60 in Calm   -999 mph 16% 0.00 in
16:27 76.1 °F 28.1 °F 23.59 in South 1.1 mph -999 mph 17% 0.00 in
16:42 77 °F 25.8 °F 23.59 in Calm   -999 mph 15% 0.00 in
16:57 77.4 °F 24.5 °F 23.59 in Calm   -999 mph 14% 0.00 in
17:12 76.5 °F 23.7 °F 23.59 in Calm   -999 mph 14% 0.00 in
17:27 80.6 °F 25.2 °F 23.58 in Calm   -999 mph 13% 0.00 in
17:43 80.1 °F 26.6 °F 23.58 in Calm   -999 mph 14% 0.00 in
17:58 77.4 °F 24.5 °F 23.58 in Calm   -999 mph 14% 0.00 in
18:13 74.5 °F 23.8 °F 23.58 in Calm   -999 mph 15% 0.00 in
18:28 76.3 °F 25.2 °F 23.58 in Calm   -999 mph 15% 0.00 in
18:44 75.6 °F 23 °F 23.58 in Calm   -999 mph 14% 0.00 in
18:59 74.5 °F 22.2 °F 23.58 in Calm   -999 mph 14% 0.00 in
19:14 71.2 °F 26.8 °F 23.58 in Calm   -999 mph 19% 0.00 in
19:29 67.3 °F 32.2 °F 23.58 in Calm   -999 mph 27% 0.00 in
19:44 63.1 °F 38.4 °F 23.59 in Calm   -999 mph 40% 0.00 in
20:00 61.3 °F 38.6 °F 23.59 in Calm   -999 mph 43% 0.00 in
20:15 59.7 °F 40.5 °F 23.59 in Calm   -999 mph 49% 0.00 in
20:30 59 °F 39.9 °F 23.59 in Calm   -999 mph 49% 0.00 in
20:45 58.3 °F 36.5 °F 23.59 in Calm   -999 mph 44% 0.00 in
21:00 57.7 °F 34.8 °F 23.59 in Calm   -999 mph 42% 0.00 in
21:16 58.5 °F 34.3 °F 23.59 in Calm   -999 mph 40% 0.00 in
21:31 57.2 °F 31.2 °F 23.59 in Calm   -999 mph 37% 0.00 in
21:46 55.9 °F 30 °F 23.59 in Calm   -999 mph 37% 0.00 in
22:01 55.2 °F 28 °F 23.59 in Calm   -999 mph 35% 0.00 in
22:16 54.9 °F 27.7 °F 23.60 in Calm   -999 mph 35% 0.00 in
22:32 54.3 °F 27.9 °F 23.60 in Calm   -999 mph 36% 0.00 in
22:47 53.6 °F 27.3 °F 23.60 in Calm   -999 mph 36% 0.00 in
23:02 53.2 °F 25.5 °F 23.59 in Calm   -999 mph 34% 0.00 in
23:17 53.2 °F 25.5 °F 23.60 in Calm   -999 mph 34% 0.00 in
23:32 53.1 °F 26.2 °F 23.60 in Calm   -999 mph 35% 0.00 in
23:48 53.1 °F 27.5 °F 23.60 in Calm   -999 mph 37% 0.00 in
Big Bear CA Weather